createdAt,value
2024-05-09T00:00:44.259Z,97611.00
2024-05-09T00:03:12.298Z,97612.00
2024-05-09T00:05:44.124Z,97612.00
2024-05-09T00:08:12.222Z,97613.00
2024-05-09T00:10:40.955Z,97608.00
2024-05-09T00:13:09.961Z,97613.00
2024-05-09T00:15:38.117Z,97614.00
2024-05-09T00:18:07.404Z,97612.00
2024-05-09T00:20:39.296Z,97611.00
2024-05-09T00:23:10.543Z,97613.00
2024-05-09T00:25:38.715Z,97609.00
2024-05-09T00:28:06.475Z,97603.00
2024-05-09T00:30:36.235Z,97607.00
2024-05-09T00:33:06.477Z,97604.00
2024-05-09T00:35:35.233Z,97599.00
2024-05-09T00:38:02.831Z,97612.00
2024-05-09T00:40:39.750Z,97615.00
2024-05-09T00:43:10.236Z,97606.00
2024-05-09T00:45:37.707Z,97604.00
2024-05-09T00:48:08.273Z,97602.00
2024-05-09T00:50:38.884Z,97606.00
2024-05-09T00:53:07.361Z,97597.00
2024-05-09T00:55:38.584Z,97595.00
2024-05-09T00:58:05.866Z,97595.00
2024-05-09T01:00:38.995Z,97593.00
2024-05-09T01:03:10.510Z,97591.00
2024-05-09T01:05:40.365Z,97589.00
2024-05-09T01:08:08.612Z,97593.00
2024-05-09T01:10:42.834Z,97593.00
2024-05-09T01:13:12.395Z,97601.00
2024-05-09T01:15:39.922Z,97596.00
2024-05-09T01:18:12.608Z,97596.00
2024-05-09T01:20:43.879Z,97594.00
2024-05-09T01:23:14.880Z,97596.00
2024-05-09T01:25:44.119Z,97594.00
2024-05-09T01:28:11.786Z,97589.00
2024-05-09T01:30:39.189Z,97595.00
2024-05-09T01:33:09.063Z,97599.00
2024-05-09T01:35:38.963Z,97590.00
2024-05-09T01:38:07.465Z,97595.00
2024-05-09T01:40:38.682Z,97602.00
2024-05-09T01:43:09.256Z,97605.00
2024-05-09T01:45:38.129Z,97601.00
2024-05-09T01:48:05.989Z,97603.00
2024-05-09T01:50:38.591Z,97603.00
2024-05-09T01:53:13.602Z,97601.00
2024-05-09T01:55:41.567Z,97598.00
2024-05-09T01:58:09.649Z,97605.00
2024-05-09T02:00:41.006Z,97603.00
2024-05-09T02:03:14.033Z,97607.00
2024-05-09T02:05:47.796Z,97609.00
2024-05-09T02:08:17.694Z,97612.00
2024-05-09T02:10:46.457Z,97604.00
2024-05-09T02:13:14.383Z,97610.00
2024-05-09T02:15:41.742Z,97613.00
2024-05-09T02:18:09.905Z,97608.00
2024-05-09T02:20:40.590Z,97600.00
2024-05-09T02:23:09.299Z,97596.00
2024-05-09T02:25:36.823Z,97601.00
2024-05-09T02:28:04.253Z,97604.00
2024-05-09T02:30:39.328Z,97597.00
2024-05-09T02:33:11.294Z,97608.00
2024-05-09T02:35:40.645Z,97603.00
2024-05-09T02:38:10.170Z,97604.00
2024-05-09T02:40:39.433Z,97603.00
2024-05-09T02:43:09.800Z,97611.00
2024-05-09T02:45:41.547Z,97605.00
2024-05-09T02:48:13.401Z,97608.00
2024-05-09T02:50:41.893Z,97611.00
2024-05-09T02:53:12.470Z,97612.00
2024-05-09T02:55:40.319Z,97614.00
2024-05-09T02:58:08.152Z,97605.00
2024-05-09T03:00:39.759Z,97608.00
2024-05-09T03:03:11.429Z,97604.00
2024-05-09T03:05:41.484Z,97608.00
2024-05-09T03:08:09.481Z,97603.00
2024-05-09T03:10:38.719Z,97603.00
2024-05-09T03:13:08.472Z,97598.00
2024-05-09T03:15:36.039Z,97600.00
2024-05-09T03:18:04.541Z,97593.00
2024-05-09T03:20:34.991Z,97585.00
2024-05-09T03:23:04.512Z,97585.00
2024-05-09T03:25:32.228Z,97583.00
2024-05-09T03:27:59.740Z,97584.00
2024-05-09T03:30:38.579Z,97581.00
2024-05-09T03:33:15.433Z,97575.00
2024-05-09T03:35:47.080Z,97575.00
2024-05-09T03:38:14.662Z,97578.00
2024-05-09T03:40:46.699Z,97589.00
2024-05-09T03:43:14.493Z,97591.00
2024-05-09T03:45:43.098Z,97577.00
2024-05-09T03:48:10.751Z,97580.00
2024-05-09T03:50:38.572Z,97575.00
2024-05-09T03:53:07.044Z,97577.00
2024-05-09T03:55:34.352Z,97577.00
2024-05-09T03:58:01.667Z,97575.00
2024-05-09T04:00:36.832Z,97571.00
2024-05-09T04:03:09.482Z,97577.00
2024-05-09T04:05:40.607Z,97569.00
2024-05-09T04:08:09.471Z,97569.00
2024-05-09T04:10:36.953Z,97573.00
2024-05-09T04:13:04.604Z,97565.00
2024-05-09T04:15:32.470Z,97566.00
2024-05-09T04:18:01.016Z,97573.00
2024-05-09T04:20:37.091Z,97569.00
2024-05-09T04:23:08.908Z,97584.00
2024-05-09T04:25:36.815Z,97577.00
2024-05-09T04:28:04.352Z,97581.00
2024-05-09T04:30:37.992Z,97581.00
2024-05-09T04:33:10.561Z,97577.00
2024-05-09T04:35:41.910Z,97580.00
2024-05-09T04:38:09.825Z,97579.00
2024-05-09T04:40:38.016Z,97588.00
2024-05-09T04:43:07.092Z,97582.00
2024-05-09T04:45:35.199Z,97581.00
2024-05-09T04:48:03.302Z,97584.00
2024-05-09T04:50:36.814Z,97585.00
2024-05-09T04:53:10.859Z,97576.00
2024-05-09T04:55:39.884Z,97577.00
2024-05-09T04:58:11.585Z,97573.00
2024-05-09T05:00:40.405Z,97572.00
2024-05-09T05:03:12.913Z,97574.00
2024-05-09T05:05:43.738Z,97575.00
2024-05-09T05:08:13.702Z,97577.00
2024-05-09T05:10:41.904Z,97585.00
2024-05-09T05:13:16.608Z,97576.00
2024-05-09T05:15:44.324Z,97588.00
2024-05-09T05:18:11.874Z,97592.00
2024-05-09T05:20:39.271Z,97589.00
2024-05-09T05:23:12.397Z,97599.00
2024-05-09T05:25:40.535Z,97601.00
2024-05-09T05:28:07.970Z,97594.00
2024-05-09T05:30:37.505Z,97600.00
2024-05-09T05:33:05.917Z,97598.00
2024-05-09T05:35:34.290Z,97598.00
2024-05-09T05:38:02.135Z,97604.00
2024-05-09T05:40:36.376Z,97608.00
2024-05-09T05:43:10.369Z,97604.00
2024-05-09T05:45:38.585Z,97606.00
2024-05-09T05:48:07.276Z,97615.00
2024-05-09T05:50:37.522Z,97619.00
2024-05-09T05:53:07.713Z,97614.00
2024-05-09T05:55:39.635Z,97624.00
2024-05-09T05:58:14.570Z,97616.00
2024-05-09T06:00:42.735Z,97623.00
2024-05-09T06:03:13.145Z,97629.00
2024-05-09T06:05:43.585Z,97619.00
2024-05-09T06:08:11.472Z,97620.00
2024-05-09T06:10:40.766Z,97614.00
2024-05-09T06:13:13.318Z,97619.00
2024-05-09T06:15:41.851Z,97619.00
2024-05-09T06:18:11.241Z,97606.00
2024-05-09T06:20:41.433Z,97609.00
2024-05-09T06:23:10.246Z,97625.00
2024-05-09T06:25:38.095Z,97617.00
2024-05-09T06:28:05.858Z,97613.00
2024-05-09T06:33:04.494Z,97606.00
2024-05-09T06:35:32.343Z,97616.00
2024-05-09T06:37:59.882Z,97606.00
2024-05-09T06:40:36.159Z,97606.00
2024-05-09T06:43:17.429Z,97608.00
2024-05-09T06:45:47.937Z,97609.00
2024-05-09T06:48:17.637Z,97616.00
2024-05-09T06:50:45.146Z,97614.00
2024-05-09T06:53:15.067Z,97617.00
2024-05-09T06:55:42.935Z,97619.00
2024-05-09T06:58:10.271Z,97621.00
2024-05-09T07:00:40.185Z,97623.00
2024-05-09T07:03:11.012Z,97619.00
2024-05-09T07:05:39.520Z,97624.00
2024-05-09T07:08:07.282Z,97618.00
2024-05-09T07:10:36.455Z,97624.00
2024-05-09T07:13:09.214Z,97633.00
2024-05-09T07:15:36.579Z,97632.00
2024-05-09T07:18:11.193Z,97625.00
2024-05-09T07:20:39.942Z,97630.00
2024-05-09T07:23:11.496Z,97627.00
2024-05-09T07:25:39.744Z,97616.00
2024-05-09T07:28:14.212Z,97620.00
2024-05-09T07:30:42.193Z,97632.00
2024-05-09T07:33:09.754Z,97623.00
2024-05-09T07:35:37.517Z,97624.00
2024-05-09T07:38:05.103Z,97625.00
2024-05-09T07:40:36.270Z,97616.00
2024-05-09T07:43:14.184Z,97611.00
2024-05-09T07:45:50.715Z,97602.00
2024-05-09T07:52:37.894Z,97607.00
2024-05-09T07:53:47.516Z,97622.00
2024-05-09T07:56:19.855Z,97610.00
2024-05-09T07:58:50.424Z,97615.00
2024-05-09T08:01:17.996Z,97607.00
2024-05-09T08:03:45.855Z,97616.00
2024-05-09T08:06:13.479Z,97615.00
2024-05-09T08:08:40.830Z,97621.00
2024-05-09T08:11:08.328Z,97616.00
2024-05-09T08:13:35.678Z,97616.00
2024-05-09T08:16:03.071Z,97612.00
2024-05-09T08:18:30.628Z,97615.00
2024-05-09T08:20:58.677Z,97616.00
2024-05-09T08:23:26.048Z,97610.00
2024-05-09T08:25:53.408Z,97603.00
2024-05-09T08:28:21.029Z,97604.00
2024-05-09T08:30:48.655Z,97612.00
2024-05-09T08:33:16.252Z,97612.00
2024-05-09T08:35:43.759Z,97603.00
2024-05-09T08:38:11.220Z,97606.00
2024-05-09T08:40:39.010Z,97603.00
2024-05-09T08:43:11.906Z,97598.00
2024-05-09T08:45:44.140Z,97603.00
2024-05-09T08:48:14.747Z,97600.00
2024-05-09T08:50:43.730Z,97601.00
2024-05-09T08:53:12.050Z,97596.00
2024-05-09T08:55:42.647Z,97584.00
2024-05-09T08:58:19.228Z,97596.00
2024-05-09T09:00:47.740Z,97589.00
2024-05-09T09:03:19.934Z,97590.00
2024-05-09T09:05:57.625Z,97594.00
2024-05-09T09:08:26.592Z,97586.00
2024-05-09T09:10:55.884Z,97589.00
2024-05-09T09:13:23.255Z,97588.00
2024-05-09T09:15:52.019Z,97586.00
2024-05-09T09:18:19.725Z,97584.00
2024-05-09T09:20:47.224Z,97590.00
2024-05-09T09:23:14.734Z,97594.00
2024-05-09T09:25:42.183Z,97594.00
2024-05-09T09:28:09.905Z,97590.00
2024-05-09T09:30:43.760Z,97588.00
2024-05-09T09:33:11.914Z,97591.00
2024-05-09T09:35:42.309Z,97588.00
2024-05-09T09:38:11.151Z,97585.00
2024-05-09T09:40:46.517Z,97588.00
2024-05-09T09:43:20.474Z,97590.00
2024-05-09T09:45:51.182Z,97580.00
2024-05-09T09:48:20.698Z,97590.00
2024-05-09T09:50:48.706Z,97586.00
2024-05-09T09:53:17.270Z,97575.00
2024-05-09T09:55:44.593Z,97579.00
2024-05-09T09:58:14.232Z,97583.00
2024-05-09T10:00:42.442Z,97580.00
2024-05-09T10:03:10.037Z,97580.00
2024-05-09T10:05:39.321Z,97594.00
2024-05-09T10:08:09.918Z,97584.00
2024-05-09T10:10:37.438Z,97583.00
2024-05-09T10:13:05.365Z,97588.00
2024-05-09T10:15:52.822Z,97579.00
2024-05-09T10:18:28.307Z,97582.00
2024-05-09T10:20:59.417Z,97573.00
2024-05-09T10:23:32.368Z,97572.00
2024-05-09T10:26:01.672Z,97574.00
2024-05-09T10:28:33.487Z,97566.00
2024-05-09T10:31:12.826Z,97560.00
2024-05-09T10:33:51.863Z,97560.00
2024-05-09T10:36:24.763Z,97562.00
2024-05-09T10:38:55.698Z,97558.00
2024-05-09T10:41:23.769Z,97562.00
2024-05-09T10:43:51.676Z,97552.00
2024-05-09T10:46:19.798Z,97558.00
2024-05-09T10:48:48.460Z,97542.00
2024-05-09T10:51:17.731Z,97546.00
2024-05-09T10:53:46.630Z,97553.00
2024-05-09T10:56:14.924Z,97555.00
2024-05-09T10:58:42.294Z,97545.00
2024-05-09T11:01:10.374Z,97538.00
2024-05-09T11:03:39.001Z,97543.00
2024-05-09T11:06:07.164Z,97537.00
2024-05-09T11:08:34.869Z,97543.00
2024-05-09T11:11:04.704Z,97540.00
2024-05-09T11:13:33.380Z,97536.00
2024-05-09T11:16:01.352Z,97534.00
2024-05-09T11:18:36.398Z,97532.00
2024-05-09T11:21:12.731Z,97527.00
2024-05-09T11:23:40.562Z,97524.00
2024-05-09T11:26:07.899Z,97519.00
2024-05-09T11:28:35.232Z,97514.00
2024-05-09T11:31:10.541Z,97516.00
2024-05-09T11:33:44.292Z,97524.00
2024-05-09T11:36:11.968Z,97515.00
2024-05-09T11:38:39.620Z,97520.00
2024-05-09T11:41:07.398Z,97522.00
2024-05-09T11:43:34.802Z,97531.00
2024-05-09T11:46:02.842Z,97518.00
2024-05-09T11:48:30.947Z,97516.00
2024-05-09T11:50:58.558Z,97502.00
2024-05-09T11:53:25.947Z,97503.00
2024-05-09T11:55:53.467Z,97502.00
2024-05-09T11:58:22.918Z,97493.00
2024-05-09T12:00:50.555Z,97495.00
2024-05-09T12:03:18.151Z,97492.00
2024-05-09T12:05:45.714Z,97495.00
2024-05-09T12:08:14.156Z,97494.00
2024-05-09T12:10:41.801Z,97482.00
2024-05-09T12:13:09.299Z,97481.00
2024-05-09T12:15:38.182Z,97487.00
2024-05-09T12:18:07.557Z,97485.00
2024-05-09T12:20:38.652Z,97492.00
2024-05-09T12:23:09.306Z,97486.00
2024-05-09T12:25:38.921Z,97478.00
2024-05-09T12:28:07.297Z,97478.00
2024-05-09T12:30:39.693Z,97467.00
2024-05-09T12:33:13.120Z,97461.00
2024-05-09T12:35:44.045Z,97471.00
2024-05-09T12:38:13.438Z,97474.00
2024-05-09T12:40:40.898Z,97470.00
2024-05-09T12:43:09.604Z,97465.00
2024-05-09T12:45:38.292Z,97462.00
2024-05-09T12:48:08.408Z,97464.00
2024-05-09T12:50:39.558Z,97458.00
2024-05-09T12:53:06.929Z,97453.00
2024-05-09T12:55:41.295Z,97449.00
2024-05-09T12:58:17.428Z,97452.00
2024-05-09T13:00:45.508Z,97447.00
2024-05-09T13:03:13.340Z,97456.00
2024-05-09T13:05:41.662Z,97451.00
2024-05-09T13:08:09.566Z,97455.00
2024-05-09T13:10:37.279Z,97448.00
2024-05-09T13:13:04.888Z,97450.00
2024-05-09T13:15:34.886Z,97443.00
2024-05-09T13:18:03.691Z,97433.00
2024-05-09T13:20:34.287Z,97426.00
2024-05-09T13:23:04.824Z,97426.00
2024-05-09T13:25:34.471Z,97426.00
2024-05-09T13:28:02.434Z,97421.00
2024-05-09T13:30:38.538Z,97424.00
2024-05-09T13:33:10.355Z,97426.00
2024-05-09T13:35:38.658Z,97419.00
2024-05-09T13:38:06.223Z,97415.00
2024-05-09T13:40:35.933Z,97406.00
2024-05-09T13:43:04.999Z,97401.00
2024-05-09T13:45:33.366Z,97397.00
2024-05-09T13:48:02.111Z,97404.00
2024-05-09T13:50:34.753Z,97401.00
2024-05-09T13:53:06.531Z,97399.00
2024-05-09T13:55:37.089Z,97404.00
2024-05-09T13:58:04.628Z,97402.00
2024-05-09T14:00:42.686Z,97398.00
2024-05-09T14:03:15.716Z,97394.00
2024-05-09T14:05:44.005Z,97395.00
2024-05-09T14:08:11.975Z,97396.00
2024-05-09T14:10:44.047Z,97390.00
2024-05-09T14:13:12.286Z,97379.00
2024-05-09T14:15:39.880Z,97381.00
2024-05-09T14:18:11.509Z,97374.00
2024-05-09T14:20:41.475Z,97389.00
2024-05-09T14:23:08.893Z,97380.00
2024-05-09T14:25:40.371Z,97380.00
2024-05-09T14:28:10.199Z,97380.00
2024-05-09T14:30:38.842Z,97372.00
2024-05-09T14:33:08.296Z,97377.00
2024-05-09T14:35:38.269Z,97368.00
2024-05-09T14:38:07.567Z,97367.00
2024-05-09T14:40:41.327Z,97361.00
2024-05-09T14:43:11.755Z,97365.00
2024-05-09T14:45:39.542Z,97362.00
2024-05-09T14:48:08.162Z,97360.00
2024-05-09T14:50:38.973Z,97358.00
2024-05-09T14:53:09.508Z,97354.00
2024-05-09T14:55:38.771Z,97349.00
2024-05-09T14:58:07.583Z,97348.00
2024-05-09T15:00:42.481Z,97350.00
2024-05-09T15:03:13.236Z,97345.00
2024-05-09T15:05:40.961Z,97341.00
2024-05-09T15:08:08.845Z,97336.00
2024-05-09T15:10:37.259Z,97333.00
2024-05-09T15:13:07.263Z,97323.00
2024-05-09T15:15:36.579Z,97332.00
2024-05-09T15:18:07.623Z,97330.00
2024-05-09T15:20:37.242Z,97324.00
2024-05-09T15:23:07.062Z,97327.00
2024-05-09T15:25:36.044Z,97330.00
2024-05-09T15:28:05.016Z,97335.00
2024-05-09T15:30:34.076Z,97334.00
2024-05-09T15:33:06.355Z,97332.00
2024-05-09T15:35:34.930Z,97331.00
2024-05-09T15:38:05.382Z,97333.00
2024-05-09T15:40:39.473Z,97335.00
2024-05-09T15:43:09.905Z,97338.00
2024-05-09T15:45:39.837Z,97335.00
2024-05-09T15:48:09.755Z,97338.00
2024-05-09T15:50:40.840Z,97338.00
2024-05-09T15:53:11.387Z,97332.00
2024-05-09T15:55:39.545Z,97328.00
2024-05-09T15:58:07.570Z,97323.00
2024-05-09T16:00:39.552Z,97318.00
2024-05-09T16:03:10.618Z,97320.00
2024-05-09T16:05:38.902Z,97316.00
2024-05-09T16:08:07.421Z,97332.00
2024-05-09T16:10:36.072Z,97335.00
2024-05-09T16:13:04.131Z,97334.00
2024-05-09T16:15:32.133Z,97333.00
2024-05-09T16:18:00.525Z,97326.00
2024-05-09T16:20:37.266Z,97327.00
2024-05-09T16:23:09.025Z,97325.00
2024-05-09T16:25:36.958Z,97329.00
2024-05-09T16:28:08.664Z,97323.00
2024-05-09T16:30:38.502Z,97325.00
2024-05-09T16:33:06.455Z,97318.00
2024-05-09T16:35:34.980Z,97309.00
2024-05-09T16:38:03.328Z,97321.00
2024-05-09T16:40:37.789Z,97316.00
2024-05-09T16:43:11.311Z,97309.00
2024-05-09T16:45:40.957Z,97315.00
2024-05-09T16:48:08.892Z,97327.00
2024-05-09T16:50:36.839Z,97317.00
2024-05-09T16:53:05.906Z,97320.00
2024-05-09T16:55:34.498Z,97313.00
2024-05-09T16:58:02.587Z,97325.00
2024-05-09T17:00:38.787Z,97317.00
2024-05-09T17:03:12.460Z,97314.00
2024-05-09T17:05:41.010Z,97321.00
2024-05-09T17:08:08.894Z,97321.00
2024-05-09T17:10:36.709Z,97318.00
2024-05-09T17:13:06.471Z,97318.00
2024-05-09T17:15:36.451Z,97321.00
2024-05-09T17:18:05.649Z,97327.00
2024-05-09T17:20:36.160Z,97314.00
2024-05-09T17:23:12.367Z,97319.00
2024-05-09T17:25:40.523Z,97316.00
2024-05-09T17:28:08.746Z,97316.00
2024-05-09T17:30:38.608Z,97313.00
2024-05-09T17:33:09.140Z,97326.00
2024-05-09T17:35:37.512Z,97325.00
2024-05-09T17:38:08.129Z,97324.00
2024-05-09T17:40:37.595Z,97323.00
2024-05-09T17:43:08.625Z,97320.00
2024-05-09T17:45:38.847Z,97327.00
2024-05-09T17:48:07.497Z,97322.00
2024-05-09T17:50:37.208Z,97320.00
2024-05-09T17:53:06.525Z,97334.00
2024-05-09T17:55:34.308Z,97329.00
2024-05-09T17:58:02.123Z,97336.00
2024-05-09T18:00:37.543Z,97337.00
2024-05-09T18:03:08.950Z,97336.00
2024-05-09T18:05:37.394Z,97348.00
2024-05-09T18:08:06.450Z,97343.00
2024-05-09T18:10:37.929Z,97345.00
2024-05-09T18:13:08.248Z,97345.00
2024-05-09T18:15:36.219Z,97339.00
2024-05-09T18:18:04.509Z,97345.00
2024-05-09T18:20:40.524Z,97346.00
2024-05-09T18:23:17.022Z,97344.00
2024-05-09T18:25:45.789Z,97339.00
2024-05-09T18:28:13.345Z,97341.00
2024-05-09T18:30:41.234Z,97339.00
2024-05-09T18:33:11.172Z,97338.00
2024-05-09T18:35:39.165Z,97345.00
2024-05-09T18:38:06.483Z,97343.00
2024-05-09T18:40:36.793Z,97339.00
2024-05-09T18:43:07.846Z,97332.00
2024-05-09T18:45:38.012Z,97331.00
2024-05-09T18:48:07.534Z,97335.00
2024-05-09T18:50:39.069Z,97344.00
2024-05-09T18:53:08.880Z,97340.00
2024-05-09T18:55:36.433Z,97344.00
2024-05-09T18:58:07.047Z,97345.00
2024-05-09T19:00:37.880Z,97354.00
2024-05-09T19:03:12.823Z,97344.00
2024-05-09T19:05:43.550Z,97352.00
2024-05-09T19:08:12.187Z,97357.00
2024-05-09T19:10:40.360Z,97358.00
2024-05-09T19:13:11.952Z,97360.00
2024-05-09T19:15:42.213Z,97363.00
2024-05-09T19:18:11.027Z,97362.00
2024-05-09T19:20:39.034Z,97368.00
2024-05-09T19:23:07.402Z,97365.00
2024-05-09T19:25:35.700Z,97362.00
2024-05-09T19:28:04.253Z,97368.00
2024-05-09T19:30:38.776Z,97373.00
2024-05-09T19:33:11.002Z,97371.00
2024-05-09T19:35:39.589Z,97372.00
2024-05-09T19:38:07.184Z,97374.00
2024-05-09T19:40:35.529Z,97377.00
2024-05-09T19:43:04.767Z,97374.00
2024-05-09T19:45:33.888Z,97373.00
2024-05-09T19:48:02.556Z,97379.00
2024-05-09T19:50:37.744Z,97373.00
2024-05-09T19:53:11.443Z,97374.00
2024-05-09T19:55:39.533Z,97378.00
2024-05-09T19:58:08.378Z,97379.00
2024-05-09T20:00:39.417Z,97374.00
2024-05-09T20:03:09.850Z,97377.00
2024-05-09T20:05:38.495Z,97376.00
2024-05-09T20:08:06.970Z,97381.00
2024-05-09T20:10:35.974Z,97382.00
2024-05-09T20:13:06.406Z,97388.00
2024-05-09T20:15:36.458Z,97392.00
2024-05-09T20:18:04.792Z,97386.00
2024-05-09T20:20:38.118Z,97389.00
2024-05-09T20:23:09.879Z,97387.00
2024-05-09T20:25:37.438Z,97386.00
2024-05-09T20:28:06.122Z,97390.00
2024-05-09T20:30:34.884Z,97392.00
2024-05-09T20:33:04.817Z,97389.00
2024-05-09T20:35:33.539Z,97392.00
2024-05-09T20:38:01.773Z,97389.00
2024-05-09T20:40:34.197Z,97383.00
2024-05-09T20:43:05.691Z,97387.00
2024-05-09T20:45:33.959Z,97387.00
2024-05-09T20:48:02.406Z,97385.00
2024-05-09T20:50:37.314Z,97386.00
2024-05-09T20:53:13.005Z,97388.00
2024-05-09T20:55:41.640Z,97381.00
2024-05-09T20:58:10.093Z,97376.00
2024-05-09T21:00:41.390Z,97380.00
2024-05-09T21:03:12.691Z,97386.00
2024-05-09T21:05:41.006Z,97379.00
2024-05-09T21:08:08.943Z,97376.00
2024-05-09T21:10:37.299Z,97376.00
2024-05-09T21:13:06.225Z,97377.00
2024-05-09T21:15:34.480Z,97374.00
2024-05-09T21:18:02.049Z,97371.00
2024-05-09T21:20:32.660Z,97365.00
2024-05-09T21:23:01.476Z,97368.00
2024-05-09T21:25:29.373Z,97366.00
2024-05-09T21:27:56.769Z,97374.00
2024-05-09T21:32:54.582Z,97363.00
2024-05-09T21:35:21.975Z,97373.00
2024-05-09T21:37:49.335Z,97367.00
2024-05-09T21:40:26.666Z,97363.00
2024-05-09T21:43:00.488Z,97377.00
2024-05-09T21:45:28.051Z,97369.00
2024-05-09T21:47:55.800Z,97362.00
2024-05-09T21:50:28.672Z,97363.00
2024-05-09T21:53:03.893Z,97363.00
2024-05-09T21:55:31.201Z,97368.00
2024-05-09T21:57:58.573Z,97365.00
2024-05-09T22:00:34.242Z,97359.00
2024-05-09T22:03:05.473Z,97367.00
2024-05-09T22:05:33.158Z,97375.00
2024-05-09T22:08:00.804Z,97367.00
2024-05-09T22:10:33.838Z,97371.00
2024-05-09T22:13:04.692Z,97369.00
2024-05-09T22:15:37.168Z,97365.00
2024-05-09T22:18:10.135Z,97367.00
2024-05-09T22:20:44.674Z,97375.00
2024-05-09T22:23:13.414Z,97364.00
2024-05-09T22:25:40.813Z,97370.00
2024-05-09T22:28:08.291Z,97372.00
2024-05-09T22:30:39.073Z,97370.00
2024-05-09T22:33:09.347Z,97375.00
2024-05-09T22:35:38.339Z,97369.00
2024-05-09T22:38:05.833Z,97375.00
2024-05-09T22:40:42.753Z,97377.00
2024-05-09T22:43:19.375Z,97381.00
2024-05-09T22:45:47.721Z,97377.00
2024-05-09T22:48:15.344Z,97372.00
2024-05-09T22:50:42.937Z,97371.00
2024-05-09T22:53:10.278Z,97374.00
2024-05-09T22:55:37.606Z,97369.00
2024-05-09T22:58:05.055Z,97378.00
2024-05-09T23:00:33.311Z,97373.00
2024-05-09T23:03:01.717Z,97374.00
2024-05-09T23:05:30.321Z,97374.00
2024-05-09T23:07:57.721Z,97368.00
2024-05-09T23:10:32.188Z,97369.00
2024-05-09T23:13:04.190Z,97369.00
2024-05-09T23:15:31.835Z,97360.00
2024-05-09T23:17:59.388Z,97361.00
2024-05-09T23:20:35.826Z,97354.00
2024-05-09T23:23:10.518Z,97354.00
2024-05-09T23:25:40.865Z,97354.00
2024-05-09T23:28:08.532Z,97358.00
2024-05-09T23:30:39.341Z,97352.00
2024-05-09T23:33:10.085Z,97352.00
2024-05-09T23:35:38.117Z,97346.00
2024-05-09T23:38:05.603Z,97349.00
2024-05-09T23:40:39.194Z,97343.00
2024-05-09T23:43:12.699Z,97345.00
2024-05-09T23:45:40.935Z,97345.00
2024-05-09T23:48:08.960Z,97341.00
2024-05-09T23:50:38.517Z,97343.00
2024-05-09T23:53:09.194Z,97341.00
2024-05-09T23:55:37.723Z,97337.00
2024-05-09T23:58:05.768Z,97340.00
